Time;durP1;ratioP1;P1;durP2;ratioP2;P2;SDS_P1;SDS_P2;PMS_P1;PMS_P2;Temp;Humidity;BMP_temperature;BMP_pressure;BME280_temperature;BME280_humidity;BME280_pressure;Samples;Min_cycle;Max_cycle;Signal;HPM_P1;HPM_P2
2020/12/05 00:02:18;;;;;;;1.23;0.97;;;5.00;99.90;;;;;;5075161;28;20202;-83
2020/12/05 00:04:45;;;;;;;2.43;0.90;;;5.00;99.90;;;;;;5074994;28;20218;-83
2020/12/05 00:07:10;;;;;;;2.23;0.77;;;5.10;99.90;;;;;;5073646;28;20556;-84
2020/12/05 00:09:37;;;;;;;1.17;1.03;;;4.90;99.90;;;;;;5074729;28;20257;-82
2020/12/05 00:12:04;;;;;;;0.10;0.10;;;4.90;99.90;;;;;;5073700;28;20230;-83
2020/12/05 00:14:30;;;;;;;0.87;0.87;;;4.80;99.90;;;;;;5073320;28;20189;-83
2020/12/05 00:16:55;;;;;;;1.50;0.40;;;4.60;99.90;;;;;;5074854;28;20211;-83
2020/12/05 00:19:21;;;;;;;0.50;0.50;;;4.50;99.90;;;;;;5075111;28;20681;-83
2020/12/05 00:21:50;;;;;;;0.37;0.37;;;4.60;99.90;;;;;;5072984;28;20206;-86
2020/12/05 00:24:16;;;;;;;1.13;0.70;;;4.60;99.90;;;;;;5074587;28;20181;-84
2020/12/05 00:26:41;;;;;;;0.90;0.87;;;4.60;99.90;;;;;;5074594;28;20188;-85
2020/12/05 00:29:07;;;;;;;1.60;1.10;;;4.40;99.90;;;;;;5072916;28;20720;-84
2020/12/05 00:31:32;;;;;;;0.83;0.83;;;4.70;99.90;;;;;;5072308;28;20209;-83
2020/12/05 00:33:58;;;;;;;1.30;1.17;;;4.90;99.90;;;;;;5078295;28;20187;-84
2020/12/05 00:36:24;;;;;;;1.57;1.47;;;5.00;99.90;;;;;;5077410;28;20215;-84
2020/12/05 00:38:49;;;;;;;0.43;0.43;;;5.20;99.90;;;;;;5077962;28;20181;-83
2020/12/05 00:41:18;;;;;;;1.27;1.23;;;5.20;99.90;;;;;;5076094;28;20524;-84
2020/12/05 00:43:44;;;;;;;2.20;1.23;;;5.40;99.90;;;;;;5089816;28;20186;-83
2020/12/05 00:46:10;;;;;;;2.57;0.50;;;5.50;99.90;;;;;;5077319;28;20184;-83
2020/12/05 00:48:36;;;;;;;1.10;1.00;;;5.50;99.90;;;;;;5078083;28;20203;-85
2020/12/05 00:51:02;;;;;;;0.17;0.17;;;5.30;99.90;;;;;;5075882;28;20193;-85
2020/12/05 00:53:28;;;;;;;0.20;0.20;;;5.10;99.90;;;;;;5076395;28;20242;-84
2020/12/05 00:55:53;;;;;;;2.37;0.50;;;5.10;99.90;;;;;;5076098;28;20286;-85
2020/12/05 00:58:19;;;;;;;0.50;0.40;;;5.10;99.90;;;;;;5076218;28;20305;-85
2020/12/05 01:00:44;;;;;;;0.83;0.80;;;4.90;99.90;;;;;;5076906;28;20183;-83
2020/12/05 01:03:10;;;;;;;1.40;0.83;;;4.80;99.90;;;;;;5077804;28;20202;-84
2020/12/05 01:05:36;;;;;;;0.63;0.50;;;4.70;99.90;;;;;;5076324;28;20193;-84
2020/12/05 01:08:06;;;;;;;0.70;0.70;;;4.70;99.90;;;;;;5075891;28;20706;-83
2020/12/05 01:10:33;;;;;;;0.70;0.70;;;4.60;99.90;;;;;;5062473;28;20190;-85
2020/12/05 01:13:01;;;;;;;0.70;0.70;;;4.70;99.90;;;;;;5077091;28;20223;-83
2020/12/05 01:15:27;;;;;;;0.37;0.37;;;4.90;99.90;;;;;;5077622;28;20199;-85
2020/12/05 01:17:54;;;;;;;1.93;1.33;;;4.90;99.90;;;;;;5076013;28;20374;-83
2020/12/05 01:20:19;;;;;;;2.83;0.40;;;4.80;99.90;;;;;;5076669;28;20182;-84
2020/12/05 01:22:45;;;;;;;0.80;0.37;;;4.70;99.90;;;;;;5075925;28;20582;-83
2020/12/05 01:25:10;;;;;;;0.57;0.50;;;4.70;99.90;;;;;;5077307;28;20821;-83
2020/12/05 01:27:36;;;;;;;1.03;0.77;;;4.60;99.90;;;;;;5077185;28;20656;-84
2020/12/05 01:30:02;;;;;;;0.67;0.40;;;4.60;99.90;;;;;;5074821;28;20200;-87
2020/12/05 01:32:28;;;;;;;0.60;0.60;;;4.60;99.90;;;;;;5076021;28;20187;-83
2020/12/05 01:34:54;;;;;;;0.50;0.50;;;4.50;99.90;;;;;;5075828;28;20523;-84
2020/12/05 01:37:20;;;;;;;0.40;0.40;;;4.50;99.90;;;;;;5075643;28;20213;-83
2020/12/05 01:39:46;;;;;;;1.80;0.93;;;4.60;99.90;;;;;;5067744;28;20182;-86
2020/12/05 01:42:11;;;;;;;1.13;0.93;;;4.60;99.90;;;;;;5070881;28;20212;-82
2020/12/05 01:44:37;;;;;;;2.83;0.40;;;4.50;99.90;;;;;;5075151;28;20186;-84
2020/12/05 01:47:03;;;;;;;1.87;1.17;;;4.50;99.90;;;;;;5074714;28;20195;-85
2020/12/05 01:49:29;;;;;;;0.47;0.47;;;4.40;99.90;;;;;;5075205;28;20651;-83
2020/12/05 01:51:56;;;;;;;0.73;0.63;;;4.40;99.90;;;;;;5074912;28;20288;-84
2020/12/05 01:54:22;;;;;;;0.80;0.43;;;4.50;99.90;;;;;;5068607;28;20191;-83
2020/12/05 01:56:59;;;;;;;0.30;0.30;;;4.40;99.90;;;;;;5068660;28;20339;-84
2020/12/05 01:59:25;;;;;;;4.40;0.80;;;4.30;99.90;;;;;;5076358;28;20207;-84
2020/12/05 02:01:55;;;;;;;0.30;0.30;;;4.30;99.90;;;;;;5073988;28;20231;-83
2020/12/05 02:04:20;;;;;;;0.50;0.50;;;4.40;99.90;;;;;;5074796;28;20627;-83
2020/12/05 02:07:05;;;;;;;0.30;0.30;;;4.60;99.90;;;;;;5073997;28;20225;-86
2020/12/05 02:09:38;;;;;;;1.20;1.10;;;4.60;99.90;;;;;;5076773;28;20182;-83
2020/12/05 02:12:16;;;;;;;0.53;0.53;;;4.50;99.90;;;;;;5074438;28;20224;-85
2020/12/05 02:14:44;;;;;;;0.40;0.40;;;4.60;99.90;;;;;;5074638;28;20185;-84
2020/12/05 02:17:11;;;;;;;1.27;0.67;;;4.50;99.90;;;;;;5075667;28;20285;-84
2020/12/05 02:19:46;;;;;;;1.20;1.07;;;4.50;99.90;;;;;;5074821;28;20270;-85
2020/12/05 02:22:15;;;;;;;0.23;0.23;;;4.50;99.90;;;;;;5074153;28;20211;-83
2020/12/05 02:24:41;;;;;;;0.53;0.53;;;4.30;99.90;;;;;;5075257;28;20178;-84
2020/12/05 02:27:07;;;;;;;0.80;0.80;;;4.50;99.90;;;;;;5065897;28;20191;-84
2020/12/05 02:29:36;;;;;;;0.37;0.37;;;4.70;99.90;;;;;;5064601;28;20238;-87
2020/12/05 02:32:03;;;;;;;0.50;0.50;;;4.80;99.90;;;;;;5074620;28;20543;-84
2020/12/05 02:34:31;;;;;;;0.73;0.40;;;4.90;99.90;;;;;;5076507;28;20187;-83
2020/12/05 02:36:59;;;;;;;0.33;0.23;;;5.00;99.90;;;;;;5074159;28;20214;-84
2020/12/05 02:39:26;;;;;;;0.40;0.30;;;5.00;99.90;;;;;;5075456;28;20187;-84
2020/12/05 02:41:52;;;;;;;0.67;0.60;;;5.10;99.90;;;;;;5073994;28;20198;-84
2020/12/05 02:44:17;;;;;;;0.70;0.60;;;5.10;99.90;;;;;;5074834;28;20270;-84
2020/12/05 02:46:48;;;;;;;0.43;0.30;;;5.10;99.90;;;;;;5068571;28;20782;-86
2020/12/05 02:49:13;;;;;;;0.77;0.77;;;5.10;99.90;;;;;;5075947;28;20178;-84
2020/12/05 02:51:40;;;;;;;0.27;0.27;;;5.20;99.90;;;;;;5073552;28;20262;-85
2020/12/05 02:54:06;;;;;;;0.33;0.33;;;5.20;99.90;;;;;;5075827;28;20175;-83
2020/12/05 02:56:32;;;;;;;0.50;0.50;;;5.20;99.90;;;;;;5073542;28;20574;-83
2020/12/05 02:58:57;;;;;;;4.53;0.73;;;5.20;99.90;;;;;;5074861;28;20180;-85
2020/12/05 03:01:23;;;;;;;1.10;0.70;;;5.20;99.90;;;;;;5072895;28;20179;-85
2020/12/05 03:03:48;;;;;;;1.27;0.53;;;5.20;99.90;;;;;;5074441;28;20217;-85
2020/12/05 03:06:14;;;;;;;2.40;0.60;;;5.20;99.90;;;;;;5074529;28;20186;-84
2020/12/05 03:08:39;;;;;;;0.93;0.83;;;5.20;99.90;;;;;;5073895;28;20220;-85
2020/12/05 03:11:05;;;;;;;0.67;0.50;;;5.10;99.90;;;;;;5074539;28;20217;-84
2020/12/05 03:13:34;;;;;;;4.57;0.87;;;5.20;99.90;;;;;;5074493;28;20217;-85
2020/12/05 03:15:59;;;;;;;0.30;0.30;;;5.20;99.90;;;;;;5069270;28;20274;-84
2020/12/05 03:18:25;;;;;;;0.37;0.37;;;5.10;99.90;;;;;;5073220;28;20200;-85
2020/12/05 03:20:50;;;;;;;1.03;0.90;;;5.10;99.90;;;;;;5072331;28;20248;-83
2020/12/05 03:23:16;;;;;;;1.20;1.20;;;5.20;99.90;;;;;;5079524;28;20198;-84
2020/12/05 03:25:41;;;;;;;1.70;1.60;;;5.20;99.90;;;;;;5084666;28;20195;-84
2020/12/05 03:28:07;;;;;;;1.93;0.83;;;5.30;99.90;;;;;;5073692;28;20660;-85
2020/12/05 03:30:33;;;;;;;0.40;0.40;;;5.20;99.90;;;;;;5073280;28;20186;-84
2020/12/05 03:32:59;;;;;;;1.07;0.47;;;5.20;99.90;;;;;;5075247;28;20287;-84
2020/12/05 03:35:26;;;;;;;1.10;0.70;;;5.20;99.90;;;;;;5074251;28;20267;-83
2020/12/05 03:37:52;;;;;;;0.50;0.50;;;5.20;99.90;;;;;;5073973;28;20274;-85
2020/12/05 03:40:18;;;;;;;1.50;0.70;;;5.20;99.90;;;;;;5074607;28;20186;-84
2020/12/05 03:42:44;;;;;;;4.13;0.77;;;5.20;99.90;;;;;;5073201;28;20202;-84
2020/12/05 03:45:09;;;;;;;2.30;0.70;;;5.00;99.90;;;;;;5073446;28;20240;-83
2020/12/05 03:47:35;;;;;;;0.67;0.67;;;4.90;99.90;;;;;;5073187;28;20664;-85
2020/12/05 03:50:03;;;;;;;1.13;0.53;;;5.00;99.90;;;;;;5073958;28;20207;-84
2020/12/05 03:52:29;;;;;;;0.30;0.30;;;5.00;99.90;;;;;;5073214;28;20203;-84
2020/12/05 03:54:55;;;;;;;1.23;0.73;;;5.00;99.90;;;;;;5069724;28;20194;-84
2020/12/05 03:57:21;;;;;;;0.57;0.57;;;4.80;99.90;;;;;;5073556;28;20204;-84
2020/12/05 03:59:46;;;;;;;0.27;0.13;;;4.90;99.90;;;;;;5074882;28;20692;-83
2020/12/05 04:02:12;;;;;;;0.50;0.50;;;4.90;99.90;;;;;;5073413;28;20588;-84
2020/12/05 04:04:38;;;;;;;0.30;0.30;;;4.90;99.90;;;;;;5075710;28;20170;-86
2020/12/05 04:07:03;;;;;;;1.37;1.27;;;4.90;99.90;;;;;;5075894;28;20254;-83
2020/12/05 04:09:29;;;;;;;0.27;0.27;;;5.00;99.90;;;;;;5072872;28;20188;-89
2020/12/05 04:11:54;;;;;;;0.60;0.60;;;4.90;99.90;;;;;;5075882;28;20229;-85
2020/12/05 04:14:20;;;;;;;1.70;0.50;;;5.00;99.90;;;;;;5077171;28;20184;-85
2020/12/05 04:16:45;;;;;;;1.00;0.30;;;4.80;99.90;;;;;;5077323;28;20274;-83
2020/12/05 04:19:11;;;;;;;0.57;0.57;;;4.50;99.90;;;;;;5077093;28;20179;-84
2020/12/05 04:21:36;;;;;;;1.07;1.00;;;4.20;99.90;;;;;;5077820;28;20213;-84
2020/12/05 04:24:02;;;;;;;0.50;0.50;;;4.30;99.90;;;;;;5077585;28;20190;-84
2020/12/05 04:26:27;;;;;;;0.77;0.77;;;4.50;99.90;;;;;;5078572;28;20197;-84
2020/12/05 04:28:53;;;;;;;2.07;0.80;;;4.60;99.90;;;;;;5078605;28;20190;-85
2020/12/05 04:31:18;;;;;;;1.07;0.83;;;4.70;99.90;;;;;;5077707;28;20192;-84
2020/12/05 04:33:44;;;;;;;0.37;0.37;;;4.80;99.90;;;;;;5076389;28;20186;-85
2020/12/05 04:36:10;;;;;;;1.07;1.07;;;4.90;99.90;;;;;;5075459;28;20225;-85
2020/12/05 04:38:35;;;;;;;1.67;0.97;;;4.90;99.90;;;;;;5077275;28;20212;-84
2020/12/05 04:41:01;;;;;;;1.80;1.13;;;4.90;99.90;;;;;;5078166;28;20188;-83
2020/12/05 04:43:27;;;;;;;1.57;0.83;;;4.80;99.90;;;;;;5077322;28;20209;-84
2020/12/05 04:45:53;;;;;;;0.30;0.30;;;4.80;99.90;;;;;;5077483;28;20288;-84
2020/12/05 04:48:20;;;;;;;0.70;0.50;;;4.80;99.90;;;;;;5078302;28;20225;-84
2020/12/05 04:50:47;;;;;;;1.90;1.03;;;4.90;99.90;;;;;;5076168;28;20198;-85
2020/12/05 04:53:18;;;;;;;6.23;0.40;;;4.90;99.90;;;;;;5076487;28;20209;-85
2020/12/05 04:55:45;;;;;;;1.00;0.77;;;4.90;99.90;;;;;;5076946;28;20214;-83
2020/12/05 04:58:21;;;;;;;0.53;0.53;;;4.80;99.90;;;;;;5093918;28;20186;-84
2020/12/05 05:01:00;;;;;;;0.87;0.60;;;4.80;99.90;;;;;;5066707;28;20215;-84
2020/12/05 05:03:27;;;;;;;0.50;0.40;;;4.80;99.90;;;;;;5076616;28;20575;-86
2020/12/05 05:05:57;;;;;;;0.93;0.60;;;4.80;99.90;;;;;;5078246;28;20187;-83
2020/12/05 05:08:27;;;;;;;1.07;1.03;;;4.70;99.90;;;;;;5077313;28;20562;-84
2020/12/05 05:11:10;;;;;;;1.10;0.50;;;4.10;99.90;;;;;;5075813;28;20214;-86
2020/12/05 05:14:13;;;;;;;0.73;0.43;;;4.10;99.90;;;;;;5075227;28;20246;-87
2020/12/05 05:16:38;;;;;;;2.40;0.70;;;4.00;99.90;;;;;;5073390;28;20208;-85
2020/12/05 05:19:21;;;;;;;0.97;0.60;;;4.10;99.90;;;;;;5068669;28;20186;-85
2020/12/05 05:21:48;;;;;;;1.90;1.27;;;3.90;99.90;;;;;;5074018;28;20684;-84
2020/12/05 05:24:21;;;;;;;1.00;1.00;;;4.00;99.90;;;;;;5070627;28;20206;-84
2020/12/05 05:27:08;;;;;;;0.83;0.50;;;4.30;99.90;;;;;;5062468;28;20239;-84
2020/12/05 05:29:38;;;;;;;0.40;0.40;;;4.50;99.90;;;;;;5073410;28;20258;-84
2020/12/05 05:34:34;;;;;;;3.47;0.70;;;4.80;99.90;;;;;;5074590;28;20185;-85
2020/12/05 05:37:00;;;;;;;0.43;0.43;;;4.90;99.90;;;;;;5073609;28;20191;-83
2020/12/05 05:39:26;;;;;;;0.50;0.50;;;4.90;99.90;;;;;;5069372;28;20176;-83
2020/12/05 05:41:54;;;;;;;0.50;0.50;;;5.00;99.90;;;;;;5061795;28;20202;-85
2020/12/05 05:44:27;;;;;;;0.70;0.70;;;5.00;99.90;;;;;;5064845;28;20204;-85
2020/12/05 05:47:01;;;;;;;5.20;1.23;;;5.10;99.90;;;;;;5069222;28;20280;-83
2020/12/05 05:49:32;;;;;;;0.50;0.37;;;5.00;99.90;;;;;;5070385;28;20654;-87
2020/12/05 05:51:59;;;;;;;0.53;0.53;;;4.70;99.90;;;;;;5069275;28;20620;-84
2020/12/05 05:54:38;;;;;;;0.60;0.60;;;4.60;99.90;;;;;;5073075;28;20214;-83
2020/12/05 05:57:05;;;;;;;1.23;1.10;;;4.60;99.90;;;;;;5086183;28;20194;-85
2020/12/05 05:59:53;;;;;;;0.40;0.40;;;4.40;99.90;;;;;;5073575;28;20181;-84
2020/12/05 06:02:26;;;;;;;1.20;1.10;;;4.10;99.90;;;;;;5072011;28;20206;-85
2020/12/05 06:04:51;;;;;;;1.27;1.20;;;4.20;99.90;;;;;;5065946;28;20642;-84
2020/12/05 06:07:22;;;;;;;0.47;0.47;;;4.20;99.90;;;;;;5068889;28;20190;-84
2020/12/05 06:09:53;;;;;;;0.20;0.20;;;4.10;99.90;;;;;;5074523;28;20665;-83
2020/12/05 06:12:31;;;;;;;1.73;0.60;;;3.90;99.90;;;;;;5073352;28;20215;-83
2020/12/05 06:14:57;;;;;;;0.20;0.20;;;3.80;99.90;;;;;;5071422;28;20196;-85
2020/12/05 06:17:33;;;;;;;0.70;0.70;;;3.70;99.90;;;;;;5074074;28;20197;-85
2020/12/05 06:19:58;;;;;;;0.63;0.63;;;3.80;99.90;;;;;;5072330;28;20178;-88
2020/12/05 06:22:56;;;;;;;1.27;0.40;;;3.60;99.90;;;;;;5082376;28;20216;-86
2020/12/05 06:25:23;;;;;;;0.23;0.23;;;3.50;99.90;;;;;;5058774;28;20195;-86
2020/12/05 06:28:06;;;;;;;0.90;0.83;;;3.50;99.90;;;;;;5074517;28;20188;-83
2020/12/05 06:30:32;;;;;;;1.27;1.03;;;3.40;99.90;;;;;;5071168;28;20213;-84
2020/12/05 06:32:57;;;;;;;2.10;1.13;;;3.40;99.90;;;;;;5073101;28;20225;-86
2020/12/05 06:35:23;;;;;;;0.47;0.47;;;3.40;99.90;;;;;;5072373;28;20181;-83
2020/12/05 06:37:50;;;;;;;0.80;0.80;;;3.60;99.90;;;;;;5073196;28;20280;-83
2020/12/05 06:40:16;;;;;;;3.77;0.60;;;3.90;99.90;;;;;;5087150;28;20664;-86
2020/12/05 06:42:44;;;;;;;1.50;0.73;;;4.10;99.90;;;;;;5071697;28;20205;-86
2020/12/05 06:45:25;;;;;;;1.43;0.87;;;4.00;99.90;;;;;;5071473;28;20199;-86
2020/12/05 06:47:51;;;;;;;0.70;0.60;;;3.60;99.90;;;;;;5065516;28;20185;-84
2020/12/05 06:50:33;;;;;;;0.27;0.27;;;3.80;99.90;;;;;;5072361;28;20185;-86
2020/12/05 06:52:58;;;;;;;0.50;0.50;;;3.90;99.90;;;;;;5070879;28;20203;-85
2020/12/05 06:55:34;;;;;;;0.80;0.80;;;3.80;99.90;;;;;;5066966;28;20175;-85
2020/12/05 06:58:05;;;;;;;1.03;1.03;;;3.60;99.90;;;;;;5068026;28;20208;-86
2020/12/05 07:00:36;;;;;;;0.80;0.80;;;3.60;99.90;;;;;;5070825;28;20184;-84
2020/12/05 07:03:09;;;;;;;1.63;1.20;;;3.50;99.90;;;;;;5071704;28;20218;-84
2020/12/05 07:05:43;;;;;;;0.40;0.40;;;3.50;99.90;;;;;;5066646;28;20242;-84
2020/12/05 07:08:35;;;;;;;1.77;1.67;;;3.60;99.90;;;;;;5073370;28;20772;-83
2020/12/05 07:11:15;;;;;;;0.63;0.63;;;3.90;99.90;;;;;;5067657;28;20260;-83
2020/12/05 07:14:05;;;;;;;0.40;0.40;;;4.10;99.90;;;;;;5071031;28;20533;-84
2020/12/05 07:16:38;;;;;;;1.10;1.00;;;4.00;99.90;;;;;;5086174;28;20243;-83
2020/12/05 07:19:05;;;;;;;0.20;0.20;;;3.70;99.90;;;;;;5094715;22;20253;-82
2020/12/05 07:21:31;;;;;;;0.63;0.37;;;3.80;99.90;;;;;;5069624;28;20217;-82
2020/12/05 07:23:56;;;;;;;3.13;0.97;;;3.80;99.90;;;;;;5069385;28;20186;-82
2020/12/05 07:26:23;;;;;;;0.77;0.77;;;3.90;99.90;;;;;;5048846;28;20181;-81
2020/12/05 07:28:53;;;;;;;0.77;0.77;;;3.90;99.90;;;;;;5069383;28;20177;-82
2020/12/05 07:31:19;;;;;;;0.80;0.80;;;3.80;99.90;;;;;;5063333;28;20265;-82
2020/12/05 07:33:46;;;;;;;0.60;0.60;;;3.90;99.90;;;;;;5066809;28;20183;-83
2020/12/05 07:36:14;;;;;;;0.53;0.53;;;4.00;99.90;;;;;;5068689;28;20274;-81
2020/12/05 07:38:42;;;;;;;1.20;1.10;;;3.90;99.90;;;;;;5068521;28;20182;-83
2020/12/05 07:41:08;;;;;;;1.63;0.33;;;3.80;99.90;;;;;;5066471;28;20174;-82
2020/12/05 07:43:34;;;;;;;0.67;0.50;;;3.70;99.90;;;;;;5065603;28;20239;-83
2020/12/05 07:46:04;;;;;;;0.70;0.70;;;3.80;99.90;;;;;;5066626;28;20221;-82
2020/12/05 07:48:29;;;;;;;2.83;1.53;;;3.80;99.90;;;;;;5062544;28;20182;-83
2020/12/05 07:50:55;;;;;;;2.00;0.97;;;3.70;99.90;;;;;;5063987;28;20633;-83
2020/12/05 07:53:29;;;;;;;0.83;0.83;;;4.00;99.90;;;;;;5065159;28;20230;-83
2020/12/05 07:55:56;;;;;;;0.97;0.93;;;3.90;99.90;;;;;;5068382;28;20289;-83
2020/12/05 07:58:22;;;;;;;0.40;0.40;;;4.10;99.90;;;;;;5065064;28;20261;-82
2020/12/05 08:00:52;;;;;;;0.77;0.77;;;4.10;99.90;;;;;;5067212;28;20260;-83
2020/12/05 08:03:46;;;;;;;0.80;0.63;;;4.00;99.90;;;;;;5061806;28;20797;-83
2020/12/05 08:06:50;;;;;;;1.00;0.60;;;4.30;99.90;;;;;;5068280;28;20958;-82
2020/12/05 08:09:25;;;;;;;3.23;0.47;;;4.20;99.90;;;;;;5053750;28;20221;-83
2020/12/05 08:11:53;;;;;;;0.67;0.67;;;4.10;99.90;;;;;;5061964;28;20194;-83
2020/12/05 08:14:19;;;;;;;0.63;0.63;;;3.90;99.90;;;;;;5062066;28;20659;-83
2020/12/05 08:16:44;;;;;;;0.40;0.40;;;3.70;99.90;;;;;;5081463;28;20292;-84
2020/12/05 08:19:10;;;;;;;0.50;0.50;;;3.70;99.90;;;;;;5065251;28;20210;-82
2020/12/05 08:21:36;;;;;;;0.83;0.83;;;3.70;99.90;;;;;;5076260;28;20189;-82
2020/12/05 08:24:09;;;;;;;0.70;0.60;;;3.70;99.90;;;;;;5077182;28;20197;-82
2020/12/05 08:26:36;;;;;;;1.43;1.17;;;3.70;99.90;;;;;;5073539;28;20196;-82
2020/12/05 08:29:02;;;;;;;0.67;0.67;;;3.70;99.90;;;;;;5063991;28;20732;-82
2020/12/05 08:31:28;;;;;;;2.70;0.53;;;3.70;99.90;;;;;;5079349;28;20184;-82
2020/12/05 08:33:54;;;;;;;0.73;0.73;;;3.70;99.90;;;;;;5067281;28;20523;-81
2020/12/05 08:36:31;;;;;;;0.80;0.80;;;3.70;99.90;;;;;;5073903;28;20244;-82
2020/12/05 08:39:01;;;;;;;2.07;0.63;;;3.80;99.90;;;;;;5071961;28;20236;-81
2020/12/05 08:41:27;;;;;;;2.67;1.10;;;3.90;99.90;;;;;;5070037;28;20207;-82
2020/12/05 08:43:52;;;;;;;0.50;0.50;;;3.90;99.90;;;;;;5066389;28;20186;-82
2020/12/05 08:46:20;;;;;;;0.70;0.67;;;4.00;99.90;;;;;;5074113;28;20532;-82
2020/12/05 08:48:46;;;;;;;4.20;1.40;;;3.90;99.90;;;;;;5066931;28;20183;-81
2020/12/05 08:51:11;;;;;;;0.63;0.50;;;3.90;99.90;;;;;;5073944;28;20242;-81
2020/12/05 08:53:37;;;;;;;0.67;0.67;;;3.90;99.90;;;;;;5071490;28;20685;-82
2020/12/05 08:56:03;;;;;;;1.70;1.20;;;3.80;99.90;;;;;;5075317;28;20205;-82
2020/12/05 08:58:47;;;;;;;0.67;0.63;;;3.90;99.90;;;;;;5075398;28;20185;-82
2020/12/05 09:01:14;;;;;;;0.97;0.97;;;4.00;99.90;;;;;;5068566;28;20649;-82
2020/12/05 09:03:40;;;;;;;1.50;0.93;;;4.00;99.90;;;;;;5066904;28;20185;-81
2020/12/05 09:06:07;;;;;;;2.43;0.80;;;4.00;99.90;;;;;;5073865;28;20189;-81
2020/12/05 09:08:33;;;;;;;0.50;0.50;;;4.00;99.90;;;;;;5073380;28;20203;-82
2020/12/05 09:10:58;;;;;;;3.50;0.93;;;3.90;99.90;;;;;;5073021;28;20215;-82
2020/12/05 09:13:24;;;;;;;0.50;0.50;;;3.90;99.90;;;;;;5073113;28;20189;-82
2020/12/05 09:15:53;;;;;;;0.70;0.70;;;3.90;99.90;;;;;;5073491;28;20210;-80
2020/12/05 09:18:18;;;;;;;2.80;1.53;;;4.00;99.90;;;;;;5072733;28;20196;-82
2020/12/05 09:20:44;;;;;;;0.87;0.87;;;3.90;99.90;;;;;;5071860;28;20283;-81
2020/12/05 09:23:09;;;;;;;0.87;0.87;;;3.90;99.90;;;;;;5071503;28;20228;-81
2020/12/05 09:25:38;;;;;;;0.73;0.63;;;4.20;99.90;;;;;;5073718;28;20173;-82
2020/12/05 09:28:16;;;;;;;2.93;1.50;;;4.20;99.90;;;;;;5071448;28;20197;-83
2020/12/05 09:30:41;;;;;;;4.03;1.47;;;4.30;99.90;;;;;;5073851;28;20264;-81
2020/12/05 09:33:09;;;;;;;2.00;1.13;;;4.30;99.90;;;;;;5074737;28;20693;-83
2020/12/05 09:35:35;;;;;;;1.77;1.10;;;4.20;99.90;;;;;;5072582;28;20249;-82
2020/12/05 09:38:02;;;;;;;0.77;0.70;;;4.20;99.90;;;;;;5069470;28;20190;-82
2020/12/05 09:40:28;;;;;;;0.70;0.70;;;4.20;99.90;;;;;;5070593;28;20352;-82
2020/12/05 09:42:53;;;;;;;0.83;0.50;;;4.20;99.90;;;;;;5072242;28;20264;-82
2020/12/05 09:45:19;;;;;;;1.70;1.27;;;4.30;99.90;;;;;;5071368;28;20193;-83
2020/12/05 09:47:45;;;;;;;2.30;1.30;;;4.20;99.90;;;;;;5073534;28;20189;-82
2020/12/05 09:50:12;;;;;;;1.60;1.57;;;4.20;99.90;;;;;;5071348;28;20201;-81
2020/12/05 09:52:37;;;;;;;0.37;0.37;;;4.20;99.90;;;;;;5071645;28;20609;-82
2020/12/05 09:55:04;;;;;;;1.27;1.13;;;4.50;99.90;;;;;;5068598;28;20276;-82
2020/12/05 09:57:29;;;;;;;1.07;1.07;;;4.70;99.90;;;;;;5071927;28;20217;-81
2020/12/05 09:59:55;;;;;;;0.83;0.70;;;4.80;99.90;;;;;;5069928;28;20202;-82
2020/12/05 10:02:21;;;;;;;0.93;0.60;;;5.10;99.90;;;;;;5070826;28;20197;-81
2020/12/05 10:04:47;;;;;;;0.63;0.63;;;5.20;99.90;;;;;;5067352;28;20194;-81
2020/12/05 10:07:12;;;;;;;0.57;0.57;;;5.40;99.90;;;;;;5070571;28;20878;-80
2020/12/05 10:09:38;;;;;;;1.67;1.07;;;5.50;99.90;;;;;;5068573;28;20224;-80
2020/12/05 10:12:04;;;;;;;1.43;0.73;;;5.50;99.90;;;;;;5069811;28;20620;-81
2020/12/05 10:14:29;;;;;;;1.30;0.80;;;5.60;99.90;;;;;;5070153;28;20185;-80
2020/12/05 10:16:55;;;;;;;1.00;0.93;;;5.50;99.90;;;;;;5069830;28;20285;-81
2020/12/05 10:19:20;;;;;;;1.03;0.80;;;5.60;99.90;;;;;;5073700;28;20687;-81
2020/12/05 10:21:50;;;;;;;2.73;2.13;;;5.70;99.90;;;;;;5072449;28;20190;-81
2020/12/05 10:24:17;;;;;;;0.10;0.10;;;5.80;99.90;;;;;;5071596;28;20199;-79
2020/12/05 10:26:50;;;;;;;0.47;0.47;;;5.80;99.90;;;;;;5069774;28;20179;-80
2020/12/05 10:29:16;;;;;;;0.30;0.30;;;5.90;99.90;;;;;;5067014;28;20238;-80
2020/12/05 10:31:47;;;;;;;0.40;0.33;;;5.90;99.90;;;;;;5066093;28;20301;-81
2020/12/05 10:34:13;;;;;;;0.97;0.37;;;5.90;99.90;;;;;;5067326;28;20192;-82
2020/12/05 10:36:40;;;;;;;1.40;1.30;;;6.00;99.90;;;;;;5077010;28;20273;-82
2020/12/05 10:39:06;;;;;;;0.60;0.60;;;6.00;99.90;;;;;;5075307;28;20273;-81
2020/12/05 10:41:32;;;;;;;0.67;0.67;;;6.10;99.90;;;;;;5069564;28;20195;-80
2020/12/05 10:43:57;;;;;;;1.47;0.70;;;6.20;99.90;;;;;;5071568;28;20191;-80
2020/12/05 10:46:23;;;;;;;0.60;0.60;;;6.30;99.90;;;;;;5062759;28;20208;-80
2020/12/05 10:48:49;;;;;;;0.43;0.43;;;6.40;99.90;;;;;;5067075;28;20191;-80
2020/12/05 10:51:14;;;;;;;1.33;0.77;;;6.40;99.90;;;;;;5062709;28;20224;-80
2020/12/05 10:53:40;;;;;;;1.17;1.07;;;6.40;99.90;;;;;;5067815;28;20218;-80
2020/12/05 10:56:05;;;;;;;2.30;1.10;;;6.40;99.90;;;;;;5071191;28;20231;-81
2020/12/05 10:58:31;;;;;;;1.97;0.43;;;6.40;99.90;;;;;;5071077;28;20181;-80
2020/12/05 11:00:56;;;;;;;0.97;0.97;;;6.50;99.90;;;;;;5070385;28;20691;-81
2020/12/05 11:03:22;;;;;;;3.40;0.93;;;6.60;99.90;;;;;;5068183;28;20328;-81
2020/12/05 11:05:47;;;;;;;1.37;0.80;;;6.70;99.90;;;;;;5067050;28;20209;-80
2020/12/05 11:08:13;;;;;;;0.43;0.43;;;6.90;99.90;;;;;;5069020;28;20278;-80
2020/12/05 11:10:39;;;;;;;0.70;0.70;;;6.80;99.90;;;;;;5057812;28;20205;-79
2020/12/05 11:13:04;;;;;;;0.70;0.60;;;6.70;99.90;;;;;;5064464;28;20256;-79
2020/12/05 11:15:30;;;;;;;1.63;0.50;;;6.80;99.90;;;;;;5068788;28;20212;-80
2020/12/05 11:17:55;;;;;;;0.43;0.43;;;6.90;99.90;;;;;;5070146;28;20185;-80
2020/12/05 11:20:22;;;;;;;1.80;0.67;;;6.90;99.90;;;;;;5069240;28;20301;-80
2020/12/05 11:22:48;;;;;;;0.57;0.57;;;7.00;99.90;;;;;;5068810;28;20648;-79
2020/12/05 11:25:14;;;;;;;0.53;0.47;;;7.00;99.90;;;;;;5069457;28;20184;-80
2020/12/05 11:27:39;;;;;;;0.37;0.37;;;7.00;99.90;;;;;;5066556;28;20278;-80
2020/12/05 11:30:05;;;;;;;0.47;0.47;;;7.10;99.90;;;;;;5073382;28;20216;-79
2020/12/05 11:32:31;;;;;;;1.00;0.73;;;7.20;99.90;;;;;;5069228;28;20653;-79
2020/12/05 11:34:56;;;;;;;1.00;0.90;;;7.20;99.90;;;;;;5071774;28;20884;-80
2020/12/05 11:37:22;;;;;;;1.13;0.67;;;7.40;99.90;;;;;;5073131;28;20270;-80
2020/12/05 11:39:47;;;;;;;0.17;0.17;;;7.50;99.90;;;;;;5074045;28;20200;-80
2020/12/05 11:42:13;;;;;;;0.40;0.40;;;7.60;99.90;;;;;;5080034;28;20183;-79
2020/12/05 11:44:39;;;;;;;0.40;0.40;;;7.60;99.90;;;;;;5080010;28;20234;-78
2020/12/05 11:47:04;;;;;;;0.60;0.30;;;7.50;99.90;;;;;;5073207;28;20219;-79
2020/12/05 11:49:30;;;;;;;0.50;0.50;;;7.50;99.90;;;;;;5068972;28;20667;-78
2020/12/05 11:51:59;;;;;;;0.23;0.23;;;7.70;99.90;;;;;;5071006;28;20757;-79
2020/12/05 11:54:25;;;;;;;0.83;0.63;;;7.70;99.90;;;;;;5072430;28;20216;-79
2020/12/05 11:56:50;;;;;;;0.50;0.50;;;7.70;99.90;;;;;;5070013;28;20214;-79
2020/12/05 11:59:16;;;;;;;1.23;0.60;;;7.80;99.90;;;;;;5070283;28;20575;-81
2020/12/05 12:01:42;;;;;;;0.20;0.20;;;7.70;99.90;;;;;;5065361;28;20182;-79
2020/12/05 12:04:08;;;;;;;0.37;0.27;;;7.70;99.90;;;;;;5074251;28;20196;-79
2020/12/05 12:06:34;;;;;;;0.30;0.30;;;7.70;99.90;;;;;;5064025;28;20221;-79
2020/12/05 12:09:00;;;;;;;0.63;0.60;;;7.80;99.90;;;;;;5068023;28;20219;-79
2020/12/05 12:11:26;;;;;;;0.40;0.40;;;7.90;99.90;;;;;;5062031;28;20337;-79
2020/12/05 12:13:51;;;;;;;1.53;0.83;;;7.80;99.90;;;;;;5070445;28;20188;-78
2020/12/05 12:16:17;;;;;;;0.40;0.30;;;7.90;99.90;;;;;;5073377;28;20234;-80
2020/12/05 12:18:43;;;;;;;1.57;0.60;;;7.90;99.90;;;;;;5072702;28;20242;-81
2020/12/05 12:21:09;;;;;;;1.07;0.73;;;8.00;99.90;;;;;;5069947;28;20222;-81
2020/12/05 12:23:35;;;;;;;1.33;0.60;;;7.90;99.90;;;;;;5072521;28;20188;-81
2020/12/05 12:26:01;;;;;;;0.63;0.43;;;7.80;99.90;;;;;;5071357;28;20665;-80
2020/12/05 12:28:27;;;;;;;0.60;0.60;;;7.70;99.90;;;;;;5071181;28;20669;-81
2020/12/05 12:30:52;;;;;;;0.97;0.93;;;7.60;99.90;;;;;;5067769;28;20607;-81
2020/12/05 12:33:18;;;;;;;0.93;0.70;;;7.60;99.90;;;;;;5074094;28;20191;-79
2020/12/05 12:35:45;;;;;;;0.20;0.20;;;7.50;99.90;;;;;;5080782;28;20191;-82
2020/12/05 12:38:11;;;;;;;1.57;0.57;;;7.50;99.90;;;;;;5075813;28;20264;-81
2020/12/05 12:40:36;;;;;;;1.07;0.40;;;7.30;99.90;;;;;;5075177;28;20231;-81
2020/12/05 12:43:02;;;;;;;0.40;0.37;;;7.30;99.90;;;;;;5076847;28;20184;-80
2020/12/05 12:45:30;;;;;;;0.30;0.30;;;7.40;99.90;;;;;;5069037;28;20182;-82
2020/12/05 12:48:39;;;;;;;0.80;0.50;;;7.30;99.90;;;;;;5073291;28;20179;-81
2020/12/05 12:50:45;;;;;;;1.13;0.20;;;7.40;99.90;;;;;;5063760;28;20216;-79
2020/12/05 12:53:11;;;;;;;0.47;0.47;;;7.40;99.90;;;;;;5071424;28;20181;-81
2020/12/05 12:55:37;;;;;;;1.40;0.60;;;7.40;99.90;;;;;;5073864;28;20269;-82
2020/12/05 12:58:16;;;;;;;0.47;0.47;;;7.00;99.90;;;;;;5073213;28;20184;-80
2020/12/05 13:00:42;;;;;;;0.63;0.40;;;6.80;99.90;;;;;;5073871;28;20350;-81
2020/12/05 13:03:08;;;;;;;0.47;0.47;;;6.80;99.90;;;;;;5074347;28;20213;-82
2020/12/05 13:05:36;;;;;;;0.57;0.57;;;6.90;99.90;;;;;;5074688;28;20183;-82